createdAt,value
2018-09-30T00:00:16.486Z,890.74
2018-09-30T00:01:16.465Z,890.74
2018-09-30T00:02:16.453Z,890.73
2018-09-30T00:03:16.441Z,890.70
2018-09-30T00:04:16.429Z,890.73
2018-09-30T00:05:16.419Z,890.70
2018-09-30T00:06:16.413Z,890.69
2018-09-30T00:07:16.398Z,890.66
2018-09-30T00:08:16.388Z,890.67
2018-09-30T00:09:16.372Z,890.65
2018-09-30T00:10:16.360Z,890.64
2018-09-30T00:11:16.348Z,890.62
2018-09-30T00:12:16.340Z,890.66
2018-09-30T00:13:16.330Z,890.63
2018-09-30T00:14:16.314Z,890.67
2018-09-30T00:15:16.304Z,890.66
2018-09-30T00:16:16.293Z,890.61
2018-09-30T00:17:16.279Z,890.58
2018-09-30T00:18:16.274Z,890.58
2018-09-30T00:19:16.262Z,890.61
2018-09-30T00:20:16.251Z,890.60
2018-09-30T00:21:16.238Z,890.58
2018-09-30T00:22:16.226Z,890.60
2018-09-30T00:23:16.214Z,890.61
2018-09-30T00:24:16.209Z,890.57
2018-09-30T00:25:16.195Z,890.59
2018-09-30T00:26:16.181Z,890.60
2018-09-30T00:27:16.173Z,890.59
2018-09-30T00:28:16.155Z,890.60
2018-09-30T00:29:16.155Z,890.59
2018-09-30T00:30:16.138Z,890.58
2018-09-30T00:31:16.124Z,890.52
2018-09-30T00:32:16.118Z,890.59
2018-09-30T00:33:16.102Z,890.58
2018-09-30T00:34:16.090Z,890.59
2018-09-30T00:35:16.092Z,890.58
2018-09-30T00:36:16.078Z,890.62
2018-09-30T00:37:16.054Z,890.56
2018-09-30T00:38:16.046Z,890.63
2018-09-30T00:39:16.038Z,890.61
2018-09-30T00:40:16.029Z,890.65
2018-09-30T00:41:16.015Z,890.63
2018-09-30T00:42:16.003Z,890.61
2018-09-30T00:43:15.989Z,890.66
2018-09-30T00:44:15.978Z,890.63
2018-09-30T00:45:15.964Z,890.65
2018-09-30T00:46:15.956Z,890.59
2018-09-30T00:47:15.952Z,890.66
2018-09-30T00:48:15.937Z,890.63
2018-09-30T00:49:15.967Z,890.70
2018-09-30T00:50:15.913Z,890.60
2018-09-30T00:51:15.896Z,890.62
2018-09-30T00:52:15.890Z,890.64
2018-09-30T00:53:15.878Z,890.63
2018-09-30T00:54:15.871Z,890.61
2018-09-30T00:55:15.852Z,890.61
2018-09-30T00:56:15.839Z,890.61
2018-09-30T00:57:15.831Z,890.60
2018-09-30T00:58:15.820Z,890.64
2018-09-30T00:59:15.810Z,890.63
2018-09-30T01:00:15.800Z,890.60
2018-09-30T01:01:15.781Z,890.61
2018-09-30T01:02:15.772Z,890.60
2018-09-30T01:03:15.779Z,890.56
2018-09-30T01:04:15.756Z,890.59
2018-09-30T01:05:15.738Z,890.55
2018-09-30T01:06:15.737Z,890.55
2018-09-30T01:07:15.720Z,890.60
2018-09-30T01:08:15.706Z,890.59
2018-09-30T01:09:15.697Z,890.52
2018-09-30T01:10:15.682Z,890.55
2018-09-30T01:11:15.672Z,890.55
2018-09-30T01:12:15.663Z,890.54
2018-09-30T01:13:15.647Z,890.55
2018-09-30T01:14:15.631Z,890.55
2018-09-30T01:15:15.623Z,890.54
2018-09-30T01:16:15.617Z,890.56
2018-09-30T01:17:15.602Z,890.54
2018-09-30T01:18:15.589Z,890.51
2018-09-30T01:19:15.575Z,890.50
2018-09-30T01:20:15.570Z,890.50
2018-09-30T01:21:15.560Z,890.55
2018-09-30T01:22:15.549Z,890.50
2018-09-30T01:23:15.534Z,890.50
2018-09-30T01:24:15.520Z,890.52
2018-09-30T01:25:15.518Z,890.47
2018-09-30T01:26:15.501Z,890.51
2018-09-30T01:27:15.487Z,890.50
2018-09-30T01:28:15.482Z,890.47
2018-09-30T01:29:15.469Z,890.47
2018-09-30T01:30:15.457Z,890.47
2018-09-30T01:31:15.443Z,890.48
2018-09-30T01:32:15.444Z,890.49
2018-09-30T01:33:15.422Z,890.44
2018-09-30T01:34:15.410Z,890.40
2018-09-30T01:35:15.398Z,890.43
2018-09-30T01:36:15.386Z,890.39
2018-09-30T01:37:15.375Z,890.41
2018-09-30T01:38:15.363Z,890.41
2018-09-30T01:39:15.354Z,890.45
2018-09-30T01:40:15.340Z,890.47
2018-09-30T01:41:15.331Z,890.45
2018-09-30T01:42:15.316Z,890.45
2018-09-30T01:43:15.305Z,890.45
2018-09-30T01:44:15.296Z,890.40
2018-09-30T01:45:15.285Z,890.43
2018-09-30T01:46:15.270Z,890.43
2018-09-30T01:47:15.263Z,890.41
2018-09-30T01:48:15.252Z,890.39
2018-09-30T01:49:15.241Z,890.42
2018-09-30T01:50:15.231Z,890.39
2018-09-30T01:51:15.214Z,890.41
2018-09-30T01:52:15.202Z,890.40
2018-09-30T01:53:15.192Z,890.41
2018-09-30T01:54:15.182Z,890.40
2018-09-30T01:55:15.174Z,890.39
2018-09-30T01:56:15.159Z,890.40
2018-09-30T01:57:15.149Z,890.35
2018-09-30T01:58:15.149Z,890.37
2018-09-30T01:59:15.122Z,890.38
2018-09-30T02:00:15.116Z,890.39
2018-09-30T02:01:15.110Z,890.32
2018-09-30T02:02:15.094Z,890.39
2018-09-30T02:03:15.082Z,890.33
2018-09-30T02:04:15.070Z,890.36
2018-09-30T02:05:15.065Z,890.36
2018-09-30T02:06:15.086Z,890.37
2018-09-30T02:07:15.038Z,890.35
2018-09-30T02:08:15.027Z,890.33
2018-09-30T02:09:15.013Z,890.33
2018-09-30T02:10:15.022Z,890.35
2018-09-30T02:11:14.990Z,890.31
2018-09-30T02:12:14.981Z,890.33
2018-09-30T02:13:14.964Z,890.30
2018-09-30T02:14:14.955Z,890.29
2018-09-30T02:15:14.945Z,890.34
2018-09-30T02:16:14.927Z,890.33
2018-09-30T02:17:14.922Z,890.33
2018-09-30T02:18:14.908Z,890.32
2018-09-30T02:19:14.892Z,890.28
2018-09-30T02:20:14.884Z,890.31
2018-09-30T02:21:14.880Z,890.32
2018-09-30T02:22:14.859Z,890.26
2018-09-30T02:23:14.852Z,890.30
2018-09-30T02:24:14.837Z,890.28
2018-09-30T02:25:14.837Z,890.28
2018-09-30T02:26:14.820Z,890.27
2018-09-30T02:27:14.810Z,890.25
2018-09-30T02:28:14.799Z,890.26
2018-09-30T02:29:14.783Z,890.28
2018-09-30T02:30:14.769Z,890.26
2018-09-30T02:31:14.762Z,890.29
2018-09-30T02:32:14.749Z,890.27
2018-09-30T02:33:14.742Z,890.26
2018-09-30T02:34:14.724Z,890.23
2018-09-30T02:35:14.720Z,890.23
2018-09-30T02:36:14.704Z,890.25
2018-09-30T02:37:14.702Z,890.28
2018-09-30T02:38:14.686Z,890.23
2018-09-30T02:39:14.672Z,890.23
2018-09-30T02:40:14.661Z,890.25
2018-09-30T02:41:14.649Z,890.26
2018-09-30T02:42:14.635Z,890.28
2018-09-30T02:43:14.624Z,890.29
2018-09-30T02:44:14.611Z,890.29
2018-09-30T02:45:14.603Z,890.32
2018-09-30T02:46:14.591Z,890.31
2018-09-30T02:47:14.577Z,890.32
2018-09-30T02:48:14.563Z,890.31
2018-09-30T02:49:14.556Z,890.32
2018-09-30T02:50:14.540Z,890.30
2018-09-30T02:51:14.536Z,890.31
2018-09-30T02:52:14.524Z,890.29
2018-09-30T02:53:14.513Z,890.27
2018-09-30T02:54:14.496Z,890.27
2018-09-30T02:55:14.486Z,890.26
2018-09-30T02:56:14.477Z,890.32
2018-09-30T02:57:14.463Z,890.29
2018-09-30T02:58:14.455Z,890.28
2018-09-30T02:59:14.445Z,890.27
2018-09-30T03:00:14.430Z,890.26
2018-09-30T03:01:14.420Z,890.24
2018-09-30T03:02:14.406Z,890.27
2018-09-30T03:03:14.399Z,890.25
2018-09-30T03:04:14.396Z,890.25
2018-09-30T03:05:14.377Z,890.23
2018-09-30T03:06:14.365Z,890.27
2018-09-30T03:07:14.355Z,890.26
2018-09-30T03:08:14.340Z,890.26
2018-09-30T03:09:14.328Z,890.25
2018-09-30T03:10:14.315Z,890.23
2018-09-30T03:11:14.307Z,890.27
2018-09-30T03:12:14.299Z,890.23
2018-09-30T03:13:14.277Z,890.22
2018-09-30T03:14:14.267Z,890.24
2018-09-30T03:15:14.258Z,890.21
2018-09-30T03:16:14.243Z,890.20
2018-09-30T03:17:14.239Z,890.21
2018-09-30T03:18:14.227Z,890.20
2018-09-30T03:19:14.209Z,890.21
2018-09-30T03:20:14.202Z,890.23
2018-09-30T03:21:14.188Z,890.24
2018-09-30T03:22:14.178Z,890.23
2018-09-30T03:23:14.162Z,890.22
2018-09-30T03:24:14.156Z,890.25
2018-09-30T03:25:14.145Z,890.24
2018-09-30T03:26:14.132Z,890.24
2018-09-30T03:27:14.128Z,890.22
2018-09-30T03:28:14.113Z,890.19
2018-09-30T03:29:14.101Z,890.23
2018-09-30T03:30:14.087Z,890.20
2018-09-30T03:31:14.077Z,890.21
2018-09-30T03:32:14.060Z,890.20
2018-09-30T03:33:14.048Z,890.25
2018-09-30T03:34:14.034Z,890.16
2018-09-30T03:35:14.030Z,890.17
2018-09-30T03:36:14.013Z,890.18
2018-09-30T03:37:14.006Z,890.15
2018-09-30T03:38:13.992Z,890.14
2018-09-30T03:39:13.984Z,890.16
2018-09-30T03:40:13.978Z,890.13
2018-09-30T03:41:13.955Z,890.15
2018-09-30T03:42:13.947Z,890.11
2018-09-30T03:43:13.937Z,890.12
2018-09-30T03:44:13.924Z,890.15
2018-09-30T03:45:13.915Z,890.14
2018-09-30T03:46:13.898Z,890.12
2018-09-30T03:47:13.894Z,890.13
2018-09-30T03:48:13.878Z,890.11
2018-09-30T03:49:13.865Z,890.14
2018-09-30T03:50:13.860Z,890.14
2018-09-30T03:51:13.843Z,890.14
2018-09-30T03:52:13.831Z,890.11
2018-09-30T03:53:13.819Z,890.11
2018-09-30T03:54:13.808Z,890.17
2018-09-30T03:55:13.796Z,890.15
2018-09-30T03:56:13.786Z,890.11
2018-09-30T03:57:13.775Z,890.11
2018-09-30T03:58:13.760Z,890.16
2018-09-30T03:59:13.750Z,890.11
2018-09-30T04:00:13.773Z,890.15
2018-09-30T04:01:13.729Z,890.08
2018-09-30T04:02:13.709Z,890.11
2018-09-30T04:03:13.707Z,890.11
2018-09-30T04:04:13.690Z,890.09
2018-09-30T04:05:13.682Z,890.05
2018-09-30T04:06:13.668Z,890.11
2018-09-30T04:07:13.658Z,890.16
2018-09-30T04:08:13.726Z,890.17
2018-09-30T04:09:13.637Z,890.13
2018-09-30T04:10:13.699Z,890.16
2018-09-30T04:11:13.612Z,890.13
2018-09-30T04:12:13.599Z,890.13
2018-09-30T04:13:13.589Z,890.12
2018-09-30T04:14:13.575Z,890.13
2018-09-30T04:15:13.566Z,890.15
2018-09-30T04:16:13.552Z,890.12
2018-09-30T04:17:13.570Z,890.09
2018-09-30T04:18:13.532Z,890.10
2018-09-30T04:19:13.520Z,890.08
2018-09-30T04:20:13.507Z,890.06
2018-09-30T04:21:13.494Z,890.12
2018-09-30T04:22:13.487Z,890.03
2018-09-30T04:23:13.470Z,890.03
2018-09-30T04:24:13.461Z,890.09
2018-09-30T04:25:13.452Z,890.10
2018-09-30T04:26:13.433Z,890.05
2018-09-30T04:27:13.423Z,889.98
2018-09-30T04:28:13.421Z,890.02
2018-09-30T04:29:13.395Z,890.00
2018-09-30T04:30:13.389Z,889.94
2018-09-30T04:31:13.381Z,889.95
2018-09-30T04:32:13.366Z,890.00
2018-09-30T04:33:13.440Z,889.99
2018-09-30T04:34:13.347Z,889.95
2018-09-30T04:35:13.333Z,889.95
2018-09-30T04:36:13.323Z,889.98
2018-09-30T04:37:13.317Z,889.99
2018-09-30T04:38:13.294Z,890.00
2018-09-30T04:39:13.290Z,890.00
2018-09-30T04:40:13.270Z,889.99
2018-09-30T04:41:13.264Z,890.01
2018-09-30T04:42:13.246Z,889.98
2018-09-30T04:43:13.251Z,889.99
2018-09-30T04:44:13.237Z,890.01
2018-09-30T04:45:13.222Z,890.00
2018-09-30T04:46:13.204Z,890.01
2018-09-30T04:47:13.183Z,890.01
2018-09-30T04:48:13.180Z,890.04
2018-09-30T04:49:13.166Z,890.01
2018-09-30T04:50:13.157Z,889.99
2018-09-30T04:51:13.144Z,890.01
2018-09-30T04:52:13.128Z,890.00
2018-09-30T04:53:13.132Z,889.98
2018-09-30T04:54:13.107Z,890.02
2018-09-30T04:55:13.095Z,889.99
2018-09-30T04:56:13.088Z,890.04
2018-09-30T04:57:13.081Z,889.99
2018-09-30T04:58:13.069Z,889.98
2018-09-30T04:59:13.053Z,890.00
2018-09-30T05:00:13.044Z,890.00
2018-09-30T05:01:13.027Z,890.02
2018-09-30T05:02:13.020Z,890.06
2018-09-30T05:03:13.005Z,890.01
2018-09-30T05:04:12.992Z,890.03
2018-09-30T05:05:12.980Z,890.07
2018-09-30T05:06:12.968Z,890.08
2018-09-30T05:07:12.964Z,890.08
2018-09-30T05:08:12.943Z,890.05
2018-09-30T05:09:12.933Z,890.07
2018-09-30T05:10:12.922Z,890.06
2018-09-30T05:11:12.914Z,890.07
2018-09-30T05:12:12.896Z,890.06
2018-09-30T05:13:12.892Z,890.06
2018-09-30T05:14:12.880Z,890.08
2018-09-30T05:15:12.860Z,890.08
2018-09-30T05:16:12.880Z,890.08
2018-09-30T05:17:12.842Z,890.09
2018-09-30T05:18:12.828Z,890.09
2018-09-30T05:19:12.816Z,890.10
2018-09-30T05:20:12.805Z,890.10
2018-09-30T05:21:12.795Z,890.12
2018-09-30T05:22:12.781Z,890.09
2018-09-30T05:23:12.769Z,890.08
2018-09-30T05:24:12.759Z,890.13
2018-09-30T05:25:12.757Z,890.12
2018-09-30T05:26:12.735Z,890.12
2018-09-30T05:27:12.723Z,890.10
2018-09-30T05:28:12.710Z,890.11
2018-09-30T05:29:12.696Z,890.09
2018-09-30T05:30:12.686Z,890.07
2018-09-30T05:31:12.728Z,890.05
2018-09-30T05:32:12.666Z,890.05
2018-09-30T05:33:12.657Z,890.06
2018-09-30T05:34:12.642Z,890.04
2018-09-30T05:35:12.632Z,890.05
2018-09-30T05:36:12.615Z,890.07
2018-09-30T05:37:12.675Z,890.02
2018-09-30T05:38:12.593Z,890.03
2018-09-30T05:39:12.593Z,890.01
2018-09-30T05:40:12.571Z,890.03
2018-09-30T05:41:12.558Z,890.01
2018-09-30T05:42:12.548Z,890.01
2018-09-30T05:43:12.534Z,890.03
2018-09-30T05:44:12.521Z,890.00
2018-09-30T05:45:12.512Z,890.00
2018-09-30T05:46:12.497Z,890.01
2018-09-30T05:47:12.490Z,890.00
2018-09-30T05:48:12.476Z,889.99
2018-09-30T05:49:12.545Z,890.00
2018-09-30T05:50:12.452Z,890.00
2018-09-30T05:51:12.441Z,890.02
2018-09-30T05:52:12.434Z,890.01
2018-09-30T05:53:12.421Z,890.03
2018-09-30T05:54:12.406Z,890.02
2018-09-30T05:55:12.396Z,890.02
2018-09-30T05:56:12.380Z,890.02
2018-09-30T05:57:12.377Z,890.06
2018-09-30T05:58:12.360Z,890.04
2018-09-30T05:59:12.350Z,890.04
2018-09-30T06:00:12.337Z,890.04
2018-09-30T06:01:12.320Z,890.06
2018-09-30T06:02:12.312Z,890.05
2018-09-30T06:03:12.300Z,890.02
2018-09-30T06:04:12.288Z,890.07
2018-09-30T06:05:12.280Z,890.01
2018-09-30T06:06:12.262Z,890.05
2018-09-30T06:07:12.252Z,890.05
2018-09-30T06:08:12.241Z,890.03
2018-09-30T06:09:12.267Z,890.05
2018-09-30T06:10:12.216Z,890.05
2018-09-30T06:11:12.202Z,890.01
2018-09-30T06:12:12.195Z,890.02
2018-09-30T06:13:12.183Z,890.00
2018-09-30T06:14:12.256Z,889.95
2018-09-30T06:15:12.163Z,889.98
2018-09-30T06:16:12.149Z,889.98
2018-09-30T06:17:12.134Z,889.98
2018-09-30T06:18:12.149Z,889.99
2018-09-30T06:19:12.107Z,889.96
2018-09-30T06:20:12.094Z,890.00
2018-09-30T06:21:12.086Z,890.00
2018-09-30T06:22:12.070Z,889.99
2018-09-30T06:23:12.065Z,890.00
2018-09-30T06:24:12.117Z,890.00
2018-09-30T06:25:12.036Z,889.95
2018-09-30T06:26:12.026Z,889.97
2018-09-30T06:27:12.013Z,889.97
2018-09-30T06:28:12.006Z,889.98
2018-09-30T06:29:11.991Z,889.97
2018-09-30T06:30:11.978Z,889.98
2018-09-30T06:31:11.967Z,889.98
2018-09-30T06:32:11.978Z,889.96
2018-09-30T06:33:11.942Z,889.98
2018-09-30T06:34:11.933Z,889.93
2018-09-30T06:35:11.918Z,889.90
2018-09-30T06:36:11.908Z,889.91
2018-09-30T06:37:11.951Z,889.94
2018-09-30T06:38:11.886Z,889.94
2018-09-30T06:39:11.872Z,889.95
2018-09-30T06:40:11.862Z,889.93
2018-09-30T06:41:11.848Z,889.94
2018-09-30T06:42:11.845Z,889.91
2018-09-30T06:43:11.828Z,889.92
2018-09-30T06:44:11.811Z,889.91
2018-09-30T06:45:11.901Z,889.92
2018-09-30T06:46:11.787Z,889.94
2018-09-30T06:47:11.775Z,889.90
2018-09-30T06:48:11.768Z,889.93
2018-09-30T06:49:11.760Z,889.94
2018-09-30T06:50:11.745Z,889.91
2018-09-30T06:51:11.730Z,889.94
2018-09-30T06:52:11.722Z,889.96
2018-09-30T06:53:11.705Z,889.96
2018-09-30T06:54:11.692Z,889.91
2018-09-30T06:55:11.684Z,889.93
2018-09-30T06:56:11.674Z,889.95
2018-09-30T06:57:11.661Z,890.00
2018-09-30T06:58:11.653Z,890.00
2018-09-30T06:59:11.639Z,889.96
2018-09-30T07:00:11.623Z,889.95
2018-09-30T07:01:11.614Z,889.92
2018-09-30T07:02:11.599Z,889.98
2018-09-30T07:03:11.632Z,889.96
2018-09-30T07:04:11.578Z,889.94
2018-09-30T07:05:11.569Z,889.98
2018-09-30T07:06:11.554Z,889.97
2018-09-30T07:07:11.542Z,889.92
2018-09-30T07:08:11.533Z,889.93
2018-09-30T07:09:11.524Z,889.91
2018-09-30T07:10:11.506Z,889.94
2018-09-30T07:11:11.496Z,889.93
2018-09-30T07:12:11.489Z,889.92
2018-09-30T07:13:11.477Z,889.92
2018-09-30T07:14:11.482Z,889.91
2018-09-30T07:15:11.452Z,889.95
2018-09-30T07:16:11.444Z,889.92
2018-09-30T07:17:11.437Z,889.95
2018-09-30T07:18:11.418Z,889.94
2018-09-30T07:19:11.412Z,889.96
2018-09-30T07:20:11.397Z,889.96
2018-09-30T07:21:11.392Z,890.00
2018-09-30T07:22:11.398Z,889.99
2018-09-30T07:23:11.370Z,890.03
2018-09-30T07:24:11.359Z,890.02
2018-09-30T07:25:11.344Z,890.02
2018-09-30T07:26:11.331Z,890.01
2018-09-30T07:27:11.323Z,890.03
2018-09-30T07:28:11.312Z,890.04
2018-09-30T07:29:11.300Z,890.04
2018-09-30T07:30:11.288Z,889.99
2018-09-30T07:31:11.274Z,890.01
2018-09-30T07:32:11.266Z,890.03
2018-09-30T07:33:11.258Z,890.05
2018-09-30T07:34:11.250Z,890.05
2018-09-30T07:35:11.285Z,890.01
2018-09-30T07:36:11.217Z,890.01
2018-09-30T07:37:11.213Z,890.00
2018-09-30T07:38:11.206Z,890.02
2018-09-30T07:39:11.192Z,890.00
2018-09-30T07:40:11.181Z,889.99
2018-09-30T07:41:11.172Z,889.99
2018-09-30T07:42:11.158Z,890.00
2018-09-30T07:43:11.154Z,890.02
2018-09-30T07:44:11.148Z,890.00
2018-09-30T07:45:11.135Z,889.98
2018-09-30T07:46:11.120Z,889.95
2018-09-30T07:47:11.106Z,889.94
2018-09-30T07:48:11.099Z,889.95
2018-09-30T07:49:11.096Z,889.94
2018-09-30T07:50:11.078Z,889.92
2018-09-30T07:51:11.074Z,889.95
2018-09-30T07:52:11.066Z,889.91
2018-09-30T07:53:11.054Z,889.90
2018-09-30T07:54:11.038Z,889.92
2018-09-30T07:55:11.033Z,889.91
2018-09-30T07:56:11.022Z,889.90
2018-09-30T07:57:11.006Z,889.91
2018-09-30T07:58:11.003Z,889.90
2018-09-30T07:59:10.997Z,889.92
2018-09-30T08:00:10.982Z,889.91
2018-09-30T08:01:10.964Z,889.88
2018-09-30T08:02:10.962Z,889.87
2018-09-30T08:03:10.954Z,889.91
2018-09-30T08:04:10.933Z,889.85
2018-09-30T08:05:10.938Z,889.87
2018-09-30T08:06:10.922Z,889.86
2018-09-30T08:07:10.914Z,889.84
2018-09-30T08:08:10.901Z,889.83
2018-09-30T08:09:10.893Z,889.82
2018-09-30T08:10:10.886Z,889.81
2018-09-30T08:11:10.870Z,889.79
2018-09-30T08:12:10.863Z,889.81
2018-09-30T08:13:10.855Z,889.78
2018-09-30T08:14:10.849Z,889.80
2018-09-30T08:15:10.833Z,889.82
2018-09-30T08:16:10.825Z,889.81
2018-09-30T08:17:10.818Z,889.80
2018-09-30T08:18:10.805Z,889.77
2018-09-30T08:19:10.800Z,889.79
2018-09-30T08:20:10.785Z,889.75
2018-09-30T08:21:10.776Z,889.75
2018-09-30T08:22:10.776Z,889.76
2018-09-30T08:23:10.774Z,889.73
2018-09-30T08:24:10.884Z,889.77
2018-09-30T08:25:10.736Z,889.77
2018-09-30T08:26:10.735Z,889.79
2018-09-30T08:27:10.719Z,889.78
2018-09-30T08:28:10.714Z,889.82
2018-09-30T08:29:10.703Z,889.76
2018-09-30T08:30:10.704Z,889.77
2018-09-30T08:31:10.687Z,889.79
2018-09-30T08:32:10.676Z,889.79
2018-09-30T08:33:10.669Z,889.77
2018-09-30T08:34:10.662Z,889.78
2018-09-30T08:35:10.648Z,889.81
2018-09-30T08:36:10.644Z,889.81
2018-09-30T08:37:10.629Z,889.78
2018-09-30T08:38:10.623Z,889.76
2018-09-30T08:39:10.620Z,889.79
2018-09-30T08:40:10.606Z,889.79
2018-09-30T08:41:10.596Z,889.75
2018-09-30T08:42:10.587Z,889.75
2018-09-30T08:43:10.580Z,889.76
2018-09-30T08:44:10.623Z,889.79
2018-09-30T08:45:10.567Z,889.79
2018-09-30T08:46:10.557Z,889.76
2018-09-30T08:47:10.604Z,889.75
2018-09-30T08:48:10.537Z,889.75
2018-09-30T08:49:10.553Z,889.74
2018-09-30T08:50:10.520Z,889.73
2018-09-30T08:51:10.511Z,889.75
2018-09-30T08:52:10.501Z,889.71
2018-09-30T08:53:10.495Z,889.73
2018-09-30T08:54:10.487Z,889.68
2018-09-30T08:55:10.471Z,889.67
2018-09-30T08:56:10.572Z,889.66
2018-09-30T08:57:10.460Z,889.63
2018-09-30T08:58:10.452Z,889.62
2018-09-30T08:59:10.448Z,889.64
2018-09-30T09:00:10.432Z,889.63
2018-09-30T09:01:10.424Z,889.62
2018-09-30T09:02:10.418Z,889.59
2018-09-30T09:03:10.501Z,889.59
2018-09-30T09:04:10.406Z,889.61
2018-09-30T09:05:10.397Z,889.58
2018-09-30T09:06:10.385Z,889.57
2018-09-30T09:07:10.377Z,889.55
2018-09-30T09:08:10.367Z,889.58
2018-09-30T09:09:10.365Z,889.55
2018-09-30T09:10:10.351Z,889.56
2018-09-30T09:11:10.348Z,889.54
2018-09-30T09:12:10.336Z,889.53
2018-09-30T09:13:10.329Z,889.50
2018-09-30T09:14:10.320Z,889.47
2018-09-30T09:15:10.310Z,889.47
2018-09-30T09:16:10.302Z,889.44
2018-09-30T09:17:10.298Z,889.42
2018-09-30T09:18:10.286Z,889.41
2018-09-30T09:19:10.282Z,889.42
2018-09-30T09:20:10.271Z,889.42
2018-09-30T09:21:10.265Z,889.38
2018-09-30T09:22:10.294Z,889.38
2018-09-30T09:23:10.249Z,889.36
2018-09-30T09:24:10.240Z,889.33
2018-09-30T09:25:10.232Z,889.32
2018-09-30T09:26:10.224Z,889.29
2018-09-30T09:27:10.216Z,889.29
2018-09-30T09:28:10.260Z,889.31
2018-09-30T09:29:10.201Z,889.32
2018-09-30T09:30:10.195Z,889.26
2018-09-30T09:31:10.189Z,889.31
2018-09-30T09:32:10.180Z,889.34
2018-09-30T09:33:10.277Z,889.30
2018-09-30T09:34:10.160Z,889.30
2018-09-30T09:35:10.203Z,889.34
2018-09-30T09:36:10.153Z,889.30
2018-09-30T09:37:10.143Z,889.30
2018-09-30T09:38:10.135Z,889.32
2018-09-30T09:39:10.127Z,889.27
2018-09-30T09:40:10.125Z,889.31
2018-09-30T09:41:10.116Z,889.26
2018-09-30T09:42:10.101Z,889.25
2018-09-30T09:43:10.097Z,889.27
2018-09-30T09:44:10.086Z,889.20
2018-09-30T09:45:10.080Z,889.21
2018-09-30T09:46:10.074Z,889.18
2018-09-30T09:47:10.115Z,889.22
2018-09-30T09:48:10.059Z,889.18
2018-09-30T09:49:10.048Z,889.18
2018-09-30T09:50:10.072Z,889.20
2018-09-30T09:51:10.032Z,889.16
2018-09-30T09:52:10.026Z,889.15
2018-09-30T09:53:10.020Z,889.11
2018-09-30T09:54:10.011Z,889.12
2018-09-30T09:55:10.011Z,889.09
2018-09-30T09:56:09.994Z,889.04
2018-09-30T09:57:09.993Z,889.05
2018-09-30T09:58:09.978Z,889.07
2018-09-30T09:59:10.058Z,889.02
2018-09-30T10:00:09.969Z,889.01
2018-09-30T10:01:09.963Z,889.00
2018-09-30T10:02:09.953Z,888.98
2018-09-30T10:03:09.945Z,888.96
2018-09-30T10:04:09.939Z,888.98
2018-09-30T10:05:09.964Z,888.91
2018-09-30T10:06:09.928Z,888.95
2018-09-30T10:07:09.922Z,888.93
2018-09-30T10:08:09.975Z,888.89
2018-09-30T10:09:09.904Z,888.91
2018-09-30T10:10:09.890Z,888.91
2018-09-30T10:11:09.890Z,888.87
2018-09-30T10:12:09.884Z,888.88
2018-09-30T10:13:09.940Z,888.87
2018-09-30T10:14:09.868Z,888.86
2018-09-30T10:15:09.863Z,888.86
2018-09-30T10:16:09.857Z,888.83
2018-09-30T10:17:09.845Z,888.85
2018-09-30T10:18:09.839Z,888.80
2018-09-30T10:19:09.837Z,888.79
2018-09-30T10:20:09.824Z,888.80
2018-09-30T10:21:09.815Z,888.77
2018-09-30T10:22:09.809Z,888.77
2018-09-30T10:23:09.806Z,888.78
2018-09-30T10:24:09.801Z,888.74
2018-09-30T10:25:09.790Z,888.70
2018-09-30T10:26:09.782Z,888.68
2018-09-30T10:27:09.774Z,888.64
2018-09-30T10:28:09.769Z,888.64
2018-09-30T10:29:09.763Z,888.64
2018-09-30T10:30:09.757Z,888.61
2018-09-30T10:31:09.745Z,888.56
2018-09-30T10:32:09.742Z,888.55
2018-09-30T10:33:09.734Z,888.55
2018-09-30T10:34:09.722Z,888.54
2018-09-30T10:35:09.718Z,888.53
2018-09-30T10:36:09.713Z,888.52
2018-09-30T10:37:09.710Z,888.52
2018-09-30T10:38:09.695Z,888.45
2018-09-30T10:39:09.812Z,888.48
2018-09-30T10:40:09.685Z,888.44
2018-09-30T10:41:09.686Z,888.41
2018-09-30T10:42:09.673Z,888.43
2018-09-30T10:43:09.665Z,888.41
2018-09-30T10:44:09.663Z,888.43
2018-09-30T10:45:09.652Z,888.39
2018-09-30T10:46:09.649Z,888.39
2018-09-30T10:47:09.639Z,888.35
2018-09-30T10:48:09.630Z,888.31
2018-09-30T10:49:09.616Z,888.34
2018-09-30T10:50:09.622Z,888.29
2018-09-30T10:51:09.614Z,888.30
2018-09-30T10:52:09.603Z,888.26
2018-09-30T10:53:09.600Z,888.29
2018-09-30T10:54:09.592Z,888.26
2018-09-30T10:55:09.643Z,888.25
2018-09-30T10:56:09.586Z,888.24
2018-09-30T10:57:09.574Z,888.19
2018-09-30T10:58:09.569Z,888.20
2018-09-30T10:59:09.557Z,888.15
2018-09-30T11:00:09.555Z,888.19
2018-09-30T11:01:09.547Z,888.15
2018-09-30T11:02:09.542Z,888.12
2018-09-30T11:03:09.527Z,888.10
2018-09-30T11:04:09.526Z,888.08
2018-09-30T11:05:09.533Z,888.07
2018-09-30T11:06:09.507Z,888.01
2018-09-30T11:07:09.508Z,888.03
2018-09-30T11:08:09.500Z,887.97
2018-09-30T11:09:09.494Z,887.96
2018-09-30T11:10:09.510Z,887.94
2018-09-30T11:11:09.480Z,887.93
2018-09-30T11:12:09.475Z,887.89
2018-09-30T11:13:09.466Z,887.90
2018-09-30T11:14:09.463Z,887.86
2018-09-30T11:15:09.450Z,887.87
2018-09-30T11:16:09.517Z,887.86
2018-09-30T11:17:09.438Z,887.83
2018-09-30T11:18:09.435Z,887.80
2018-09-30T11:19:09.428Z,887.78
2018-09-30T11:20:09.419Z,887.75
2018-09-30T11:21:09.411Z,887.77
2018-09-30T11:22:09.403Z,887.74
2018-09-30T11:23:09.401Z,887.71
2018-09-30T11:24:09.393Z,887.68
2018-09-30T11:25:09.384Z,887.64
2018-09-30T11:26:09.384Z,887.67
2018-09-30T11:27:09.371Z,887.59
2018-09-30T11:28:09.369Z,887.58
2018-09-30T11:29:09.359Z,887.57
2018-09-30T11:30:09.359Z,887.58
2018-09-30T11:31:09.350Z,887.56
2018-09-30T11:32:09.344Z,887.55
2018-09-30T11:33:09.332Z,887.49
2018-09-30T11:34:09.324Z,887.57
2018-09-30T11:35:09.327Z,887.55
2018-09-30T11:36:09.316Z,887.50
2018-09-30T11:37:09.310Z,887.53
2018-09-30T11:38:09.303Z,887.53
2018-09-30T11:39:09.302Z,887.53
2018-09-30T11:40:09.292Z,887.47
2018-09-30T11:41:09.288Z,887.49
2018-09-30T11:42:09.274Z,887.47
2018-09-30T11:43:09.273Z,887.45
2018-09-30T11:44:09.270Z,887.41
2018-09-30T11:45:09.260Z,887.41
2018-09-30T11:46:09.253Z,887.37
2018-09-30T11:47:09.244Z,887.35
2018-09-30T11:48:09.244Z,887.35
2018-09-30T11:49:09.230Z,887.33
2018-09-30T11:50:09.230Z,887.28
2018-09-30T11:51:09.217Z,887.32
2018-09-30T11:52:09.219Z,887.29
2018-09-30T11:53:09.215Z,887.23
2018-09-30T11:54:09.197Z,887.24
2018-09-30T11:55:09.197Z,887.21
2018-09-30T11:56:09.185Z,887.21
2018-09-30T11:57:09.185Z,887.17
2018-09-30T11:58:09.183Z,887.17
2018-09-30T11:59:09.170Z,887.15
2018-09-30T12:00:09.166Z,887.11
2018-09-30T12:01:09.161Z,887.07
2018-09-30T12:02:09.205Z,886.98
2018-09-30T12:03:09.146Z,887.02
2018-09-30T12:04:09.137Z,886.98
2018-09-30T12:05:09.132Z,886.98
2018-09-30T12:06:09.126Z,886.94
2018-09-30T12:07:09.125Z,886.94
2018-09-30T12:08:09.109Z,886.93
2018-09-30T12:09:09.106Z,886.87
2018-09-30T12:10:09.100Z,886.88
2018-09-30T12:11:09.096Z,886.82
2018-09-30T12:12:09.090Z,886.80
2018-09-30T12:13:09.080Z,886.77
2018-09-30T12:14:09.076Z,886.72
2018-09-30T12:15:09.073Z,886.75
2018-09-30T12:16:09.067Z,886.73
2018-09-30T12:17:09.056Z,886.73
2018-09-30T12:18:09.054Z,886.72
2018-09-30T12:19:09.047Z,886.67
2018-09-30T12:20:09.045Z,886.63
2018-09-30T12:21:09.037Z,886.62
2018-09-30T12:22:09.025Z,886.63
2018-09-30T12:23:09.023Z,886.64
2018-09-30T12:24:09.017Z,886.62
2018-09-30T12:25:09.010Z,886.62
2018-09-30T12:26:09.004Z,886.63
2018-09-30T12:27:08.996Z,886.58
2018-09-30T12:28:08.994Z,886.57